Time;durP1;ratioP1;P1;durP2;ratioP2;P2;SDS_P1;SDS_P2;PMS_P1;PMS_P2;Temp;Humidity;BMP_temperature;BMP_pressure;BME280_temperature;BME280_humidity;BME280_pressure;Samples;Min_cycle;Max_cycle;Signal;HPM_P1;HPM_P2
2023/05/30 00:00:24;;;;;;;;;;;;;;;;;;5089106;28;20052;-60
2023/05/30 00:02:49;;;;;;;;;;;;;;;;;;5088842;28;19924;-59
2023/05/30 00:05:15;;;;;;;;;;;;;;;;;;5091855;28;19924;-59
2023/05/30 00:07:41;;;;;;;;;;;;;;;;;;5092854;28;19921;-59
2023/05/30 00:10:07;;;;;;;;;;;;;;;;;;5074450;28;19924;-59
2023/05/30 00:12:35;;;;;;;;;;;;;;;;;;5092235;28;19924;-59
2023/05/30 00:15:01;;;;;;;;;;;;;;;;;;5092782;28;19931;-59
2023/05/30 00:17:27;;;;;;;;;;;;;;;;;;5074417;28;20300;-59
2023/05/30 00:19:54;;;;;;;;;;;;;;;;;;5092187;28;19920;-59
2023/05/30 00:22:20;;;;;;;;;;;;;;;;;;5092528;28;19924;-59
2023/05/30 00:24:46;;;;;;;;;;;;;;;;;;5092202;28;19924;-59
2023/05/30 00:27:13;;;;;;;;;;;;;;;;;;5073751;28;19924;-59
2023/05/30 00:29:39;;;;;;;;;;;;;;;;;;5086251;28;20006;-59
2023/05/30 00:32:05;;;;;;;;;;;;;;;;;;5092367;28;19924;-59
2023/05/30 00:34:31;;;;;;;;;;;;;;;;;;5091966;28;19927;-58
2023/05/30 00:36:57;;;;;;;;;;;;;;;;;;5092409;28;19967;-59
2023/05/30 00:39:23;;;;;;;;;;;;;;;;;;5092190;28;19931;-60
2023/05/30 00:41:49;;;;;;;;;;;;;;;;;;5091501;28;19931;-59
2023/05/30 00:44:15;;;;;;;;;;;;;;;;;;5092221;28;19963;-59
2023/05/30 00:46:41;;;;;;;;;;;;;;;;;;5092267;28;20011;-59
2023/05/30 00:49:06;;;;;;;;;;;;;;;;;;5091724;28;21308;-60
2023/05/30 00:51:32;;;;;;;;;;;;;;;;;;5091991;28;19924;-60
2023/05/30 00:53:58;;;;;;;;;;;;;;;;;;5091932;28;19927;-59
2023/05/30 00:56:26;;;;;;;;;;;;;;;;;;5091410;28;20398;-59
2023/05/30 00:58:52;;;;;;;;;;;;;;;;;;5092187;28;20397;-60
2023/05/30 01:01:19;;;;;;;;;;;;;;;;;;5073725;28;19967;-60
2023/05/30 01:03:47;;;;;;;;;;;;;;;;;;5073369;28;19927;-59
2023/05/30 01:06:13;;;;;;;;;;;;;;;;;;5091806;28;19927;-59
2023/05/30 01:08:39;;;;;;;;;;;;;;;;;;5091773;28;19932;-59
2023/05/30 01:11:05;;;;;;;;;;;;;;;;;;5091168;28;19989;-59
2023/05/30 01:13:32;;;;;;;;;;;;;;;;;;5091408;28;19948;-59
2023/05/30 01:15:58;;;;;;;;;;;;;;;;;;5090740;28;19924;-59
2023/05/30 01:18:24;;;;;;;;;;;;;;;;;;5072757;28;20007;-59
2023/05/30 01:20:50;;;;;;;;;;;;;;;;;;5091665;28;20014;-60
2023/05/30 01:23:18;;;;;;;;;;;;;;;;;;5091427;28;19927;-60
2023/05/30 01:25:44;;;;;;;;;;;;;;;;;;5084612;28;19942;-59
2023/05/30 01:28:10;;;;;;;;;;;;;;;;;;5072476;28;20006;-59
2023/05/30 01:30:37;;;;;;;;;;;;;;;;;;5073528;28;19920;-59
2023/05/30 01:33:02;;;;;;;;;;;;;;;;;;5090811;28;19927;-59
2023/05/30 01:35:28;;;;;;;;;;;;;;;;;;5091426;28;19924;-59
2023/05/30 01:37:54;;;;;;;;;;;;;;;;;;5090904;28;19927;-59
2023/05/30 01:40:20;;;;;;;;;;;;;;;;;;5090569;28;19928;-59
2023/05/30 01:42:46;;;;;;;;;;;;;;;;;;5091041;28;20071;-59
2023/05/30 01:45:12;;;;;;;;;;;;;;;;;;5091086;28;19920;-59
2023/05/30 01:47:38;;;;;;;;;;;;;;;;;;5090445;28;19994;-59
2023/05/30 01:50:04;;;;;;;;;;;;;;;;;;5091005;28;19920;-59
2023/05/30 01:52:30;;;;;;;;;;;;;;;;;;5072717;28;19920;-59
2023/05/30 01:54:56;;;;;;;;;;;;;;;;;;5090202;28;19953;-59
2023/05/30 01:57:22;;;;;;;;;;;;;;;;;;5090850;28;19990;-59
2023/05/30 01:59:47;;;;;;;;;;;;;;;;;;5090729;28;20421;-59
2023/05/30 02:02:13;;;;;;;;;;;;;;;;;;5090114;28;19920;-59
2023/05/30 02:04:39;;;;;;;;;;;;;;;;;;5090695;28;19943;-59
2023/05/30 02:07:05;;;;;;;;;;;;;;;;;;5090677;28;19935;-59
2023/05/30 02:09:31;;;;;;;;;;;;;;;;;;5090078;28;19920;-60
2023/05/30 02:11:57;;;;;;;;;;;;;;;;;;5090350;28;19924;-59
2023/05/30 02:14:23;;;;;;;;;;;;;;;;;;5090590;28;20294;-59
2023/05/30 02:16:49;;;;;;;;;;;;;;;;;;5089973;28;19928;-60
2023/05/30 02:19:15;;;;;;;;;;;;;;;;;;5090309;28;19924;-59
2023/05/30 02:21:41;;;;;;;;;;;;;;;;;;5090492;28;19924;-59
2023/05/30 02:24:07;;;;;;;;;;;;;;;;;;5090212;28;20011;-59
2023/05/30 02:26:33;;;;;;;;;;;;;;;;;;5076785;28;20720;-59
2023/05/30 02:28:59;;;;;;;;;;;;;;;;;;5078204;28;19924;-59
2023/05/30 02:31:25;;;;;;;;;;;;;;;;;;5090449;28;20427;-59
2023/05/30 02:33:51;;;;;;;;;;;;;;;;;;5089717;28;20424;-59
2023/05/30 02:36:17;;;;;;;;;;;;;;;;;;5090132;28;19920;-59
2023/05/30 02:38:43;;;;;;;;;;;;;;;;;;5089995;28;19927;-59
2023/05/30 02:41:08;;;;;;;;;;;;;;;;;;5089658;28;19927;-59
2023/05/30 02:43:34;;;;;;;;;;;;;;;;;;5089913;28;19923;-59
2023/05/30 02:46:01;;;;;;;;;;;;;;;;;;5090066;28;19931;-59
2023/05/30 02:48:27;;;;;;;;;;;;;;;;;;5089352;28;20381;-59
2023/05/30 02:50:53;;;;;;;;;;;;;;;;;;5089708;28;19927;-59
2023/05/30 02:53:19;;;;;;;;;;;;;;;;;;5089615;28;19924;-59
2023/05/30 02:55:45;;;;;;;;;;;;;;;;;;5089234;28;19928;-59
2023/05/30 02:58:14;;;;;;;;;;;;;;;;;;5071297;28;19927;-59
2023/05/30 03:00:40;;;;;;;;;;;;;;;;;;5089645;28;19924;-59
2023/05/30 03:03:08;;;;;;;;;;;;;;;;;;5088888;28;20417;-59
2023/05/30 03:05:34;;;;;;;;;;;;;;;;;;5089401;28;20386;-59
2023/05/30 03:08:00;;;;;;;;;;;;;;;;;;5089387;28;19935;-59
2023/05/30 03:10:26;;;;;;;;;;;;;;;;;;5088949;28;19924;-59
2023/05/30 03:12:52;;;;;;;;;;;;;;;;;;5089422;28;19924;-59
2023/05/30 03:15:20;;;;;;;;;;;;;;;;;;5089364;28;20329;-59
2023/05/30 03:17:46;;;;;;;;;;;;;;;;;;5088830;28;19932;-59
2023/05/30 03:20:12;;;;;;;;;;;;;;;;;;5054527;28;20290;-59
2023/05/30 03:22:38;;;;;;;;;;;;;;;;;;5089136;28;20031;-59
2023/05/30 03:25:05;;;;;;;;;;;;;;;;;;5087795;28;19965;-59
2023/05/30 03:27:31;;;;;;;;;;;;;;;;;;5068910;28;19936;-59
2023/05/30 03:29:56;;;;;;;;;;;;;;;;;;5085266;28;19920;-59
2023/05/30 03:32:22;;;;;;;;;;;;;;;;;;5088634;28;20000;-59
2023/05/30 03:34:48;;;;;;;;;;;;;;;;;;5089477;28;19923;-59
2023/05/30 03:37:14;;;;;;;;;;;;;;;;;;5088956;28;19927;-60
2023/05/30 03:39:40;;;;;;;;;;;;;;;;;;5087859;28;19924;-59
2023/05/30 03:42:06;;;;;;;;;;;;;;;;;;5089036;28;19924;-59
2023/05/30 03:44:32;;;;;;;;;;;;;;;;;;5088976;28;20011;-59
2023/05/30 03:46:58;;;;;;;;;;;;;;;;;;5088578;28;20450;-59
2023/05/30 03:49:24;;;;;;;;;;;;;;;;;;5088611;28;20332;-59
2023/05/30 03:51:50;;;;;;;;;;;;;;;;;;5088913;28;19920;-59
2023/05/30 03:54:16;;;;;;;;;;;;;;;;;;5088160;28;20036;-59
2023/05/30 03:56:42;;;;;;;;;;;;;;;;;;5089212;28;19930;-59
2023/05/30 03:59:07;;;;;;;;;;;;;;;;;;5070991;28;20290;-59
2023/05/30 04:01:34;;;;;;;;;;;;;;;;;;5088773;28;19920;-59
2023/05/30 04:03:59;;;;;;;;;;;;;;;;;;5088809;28;20347;-59
2023/05/30 04:06:25;;;;;;;;;;;;;;;;;;5088833;28;19924;-59
2023/05/30 04:08:51;;;;;;;;;;;;;;;;;;5088032;28;20325;-59
2023/05/30 04:11:17;;;;;;;;;;;;;;;;;;5088854;28;19970;-59
2023/05/30 04:13:43;;;;;;;;;;;;;;;;;;5088776;28;20401;-59
2023/05/30 04:16:09;;;;;;;;;;;;;;;;;;5088435;28;19924;-59
2023/05/30 04:18:43;;;;;;;;;;;;;;;;;;5088883;28;20471;-59
2023/05/30 04:21:09;;;;;;;;;;;;;;;;;;5088922;28;19924;-59
2023/05/30 04:23:35;;;;;;;;;;;;;;;;;;5088409;28;19934;-59
2023/05/30 04:26:01;;;;;;;;;;;;;;;;;;5080432;28;20023;-59
2023/05/30 04:28:27;;;;;;;;;;;;;;;;;;5071875;28;20065;-59
2023/05/30 04:30:54;;;;;;;;;;;;;;;;;;5088446;28;20367;-59
2023/05/30 04:33:20;;;;;;;;;;;;;;;;;;5088541;28;19931;-59
2023/05/30 04:35:47;;;;;;;;;;;;;;;;;;5088524;28;19920;-59
2023/05/30 04:38:19;;;;;;;;;;;;;;;;;;5088002;28;19920;-59
2023/05/30 04:40:48;;;;;;;;;;;;;;;;;;5088465;28;19931;-60
2023/05/30 04:43:19;;;;;;;;;;;;;;;;;;5088226;28;20379;-60
2023/05/30 04:45:47;;;;;;;;;;;;;;;;;;5087926;28;19931;-60
2023/05/30 04:48:15;;;;;;;;;;;;;;;;;;5088359;28;19959;-59
2023/05/30 04:50:41;;;;;;;;;;;;;;;;;;5089179;28;19924;-59
2023/05/30 04:53:07;;;;;;;;;;;;;;;;;;5091449;28;20381;-59
2023/05/30 04:55:34;;;;;;;;;;;;;;;;;;5091919;28;19931;-60
2023/05/30 04:58:00;;;;;;;;;;;;;;;;;;5091843;28;20239;-60
2023/05/30 05:00:26;;;;;;;;;;;;;;;;;;5091385;28;19920;-60
2023/05/30 05:02:52;;;;;;;;;;;;;;;;;;5091891;28;19920;-60
2023/05/30 05:05:18;;;;;;;;;;;;;;;;;;5091438;28;19931;-60
2023/05/30 05:07:44;;;;;;;;;;;;;;;;;;5091164;28;20299;-60
2023/05/30 05:10:10;;;;;;;;;;;;;;;;;;5091438;28;19924;-60
2023/05/30 05:12:36;;;;;;;;;;;;;;;;;;5090673;28;19920;-60
2023/05/30 05:15:01;;;;;;;;;;;;;;;;;;5090338;28;20006;-60
2023/05/30 05:17:27;;;;;;;;;;;;;;;;;;5090678;28;19927;-60
2023/05/30 05:19:53;;;;;;;;;;;;;;;;;;5090770;28;19920;-60
2023/05/30 05:22:19;;;;;;;;;;;;;;;;;;5090468;28;20378;-60
2023/05/30 05:24:45;;;;;;;;;;;;;;;;;;5090804;28;20491;-60
2023/05/30 05:27:11;;;;;;;;;;;;;;;;;;5090944;28;19950;-61
2023/05/30 05:29:37;;;;;;;;;;;;;;;;;;5090365;28;19924;-61
2023/05/30 05:32:03;;;;;;;;;;;;;;;;;;5090791;28;19924;-60
2023/05/30 05:34:29;;;;;;;;;;;;;;;;;;5091053;28;20293;-60
2023/05/30 05:36:55;;;;;;;;;;;;;;;;;;5090759;28;19971;-60
2023/05/30 05:39:21;;;;;;;;;;;;;;;;;;5092796;28;19928;-60
2023/05/30 05:41:47;;;;;;;;;;;;;;;;;;5092619;28;19947;-60
2023/05/30 05:44:13;;;;;;;;;;;;;;;;;;5091638;28;19924;-60
2023/05/30 05:46:39;;;;;;;;;;;;;;;;;;5091932;28;19969;-60
2023/05/30 05:49:05;;;;;;;;;;;;;;;;;;5092390;28;19920;-60
2023/05/30 05:51:31;;;;;;;;;;;;;;;;;;5091837;28;19990;-60
2023/05/30 05:53:57;;;;;;;;;;;;;;;;;;5074043;28;19993;-60
2023/05/30 05:56:23;;;;;;;;;;;;;;;;;;5092162;28;20363;-59
2023/05/30 05:58:49;;;;;;;;;;;;;;;;;;5092361;28;19924;-61
2023/05/30 06:01:15;;;;;;;;;;;;;;;;;;5091713;28;19924;-60
2023/05/30 06:03:41;;;;;;;;;;;;;;;;;;5091873;28;20336;-61
2023/05/30 06:06:07;;;;;;;;;;;;;;;;;;5092171;28;19927;-60
2023/05/30 06:08:33;;;;;;;;;;;;;;;;;;5091774;28;19924;-60
2023/05/30 06:10:59;;;;;;;;;;;;;;;;;;5092389;28;20384;-60
2023/05/30 06:13:25;;;;;;;;;;;;;;;;;;5092237;28;19934;-60
2023/05/30 06:15:51;;;;;;;;;;;;;;;;;;5086078;28;19920;-58
2023/05/30 06:18:17;;;;;;;;;;;;;;;;;;5090752;28;20393;-58
2023/05/30 06:20:43;;;;;;;;;;;;;;;;;;5090954;28;19926;-57
2023/05/30 06:23:09;;;;;;;;;;;;;;;;;;5072232;28;19947;-58
2023/05/30 06:25:35;;;;;;;;;;;;;;;;;;5090351;28;19935;-60
2023/05/30 06:28:01;;;;;;;;;;;;;;;;;;5090105;28;20317;-58
2023/05/30 06:30:27;;;;;;;;;;;;;;;;;;5071569;28;20014;-57
2023/05/30 06:32:53;;;;;;;;;;;;;;;;;;5090392;28;19999;-58
2023/05/30 06:35:19;;;;;;;;;;;;;;;;;;5090329;28;19946;-58
2023/05/30 06:37:45;;;;;;;;;;;;;;;;;;5090009;28;20053;-60
2023/05/30 06:40:11;;;;;;;;;;;;;;;;;;5089857;28;19950;-59
2023/05/30 06:42:37;;;;;;;;;;;;;;;;;;5090221;28;19928;-60
2023/05/30 06:45:02;;;;;;;;;;;;;;;;;;5089578;28;20298;-59
2023/05/30 06:47:28;;;;;;;;;;;;;;;;;;5090288;28;19924;-58
2023/05/30 06:49:54;;;;;;;;;;;;;;;;;;5090097;28;19920;-58
2023/05/30 06:52:20;;;;;;;;;;;;;;;;;;5089118;28;19924;-57
2023/05/30 06:54:46;;;;;;;;;;;;;;;;;;5089839;28;19920;-58
2023/05/30 06:57:12;;;;;;;;;;;;;;;;;;5089975;28;19924;-59
2023/05/30 06:59:38;;;;;;;;;;;;;;;;;;5089392;28;20449;-59
2023/05/30 07:02:04;;;;;;;;;;;;;;;;;;5089784;28;20010;-59
2023/05/30 07:04:30;;;;;;;;;;;;;;;;;;5089850;28;20290;-59
2023/05/30 07:06:56;;;;;;;;;;;;;;;;;;5089546;28;19949;-59
2023/05/30 07:09:22;;;;;;;;;;;;;;;;;;5090084;28;20393;-58
2023/05/30 07:11:50;;;;;;;;;;;;;;;;;;5089565;28;19927;-59
2023/05/30 07:14:16;;;;;;;;;;;;;;;;;;5088630;28;19936;-59
2023/05/30 07:16:41;;;;;;;;;;;;;;;;;;5089857;28;20011;-58
2023/05/30 07:19:07;;;;;;;;;;;;;;;;;;5089789;28;19927;-59
2023/05/30 07:21:33;;;;;;;;;;;;;;;;;;5089264;28;20027;-58
2023/05/30 07:23:59;;;;;;;;;;;;;;;;;;5089439;28;19926;-57
2023/05/30 07:26:25;;;;;;;;;;;;;;;;;;5071296;28;19932;-58
2023/05/30 07:28:51;;;;;;;;;;;;;;;;;;5089148;28;19924;-58
2023/05/30 07:31:17;;;;;;;;;;;;;;;;;;5089458;28;19943;-57
2023/05/30 07:33:43;;;;;;;;;;;;;;;;;;5089585;28;20306;-57
2023/05/30 07:36:10;;;;;;;;;;;;;;;;;;5084653;28;19921;-60
2023/05/30 07:38:36;;;;;;;;;;;;;;;;;;5070298;28;20397;-60
2023/05/30 07:41:02;;;;;;;;;;;;;;;;;;5083404;28;20020;-60
2023/05/30 07:43:28;;;;;;;;;;;;;;;;;;5086694;28;20394;-60
2023/05/30 07:45:54;;;;;;;;;;;;;;;;;;5089920;28;19920;-59
2023/05/30 07:48:20;;;;;;;;;;;;;;;;;;5068868;28;19947;-61
2023/05/30 07:50:49;;;;;;;;;;;;;;;;;;5069770;28;20026;-59
2023/05/30 07:53:15;;;;;;;;;;;;;;;;;;5076309;28;20066;-60
2023/05/30 07:55:41;;;;;;;;;;;;;;;;;;5088718;28;19945;-59
2023/05/30 07:58:07;;;;;;;;;;;;;;;;;;5079147;28;20014;-59
2023/05/30 08:00:33;;;;;;;;;;;;;;;;;;5084510;28;19924;-60
2023/05/30 08:02:59;;;;;;;;;;;;;;;;;;5085284;28;19944;-59
2023/05/30 08:05:25;;;;;;;;;;;;;;;;;;5075026;28;19931;-56
2023/05/30 08:07:51;;;;;;;;;;;;;;;;;;5064202;28;20460;-58
2023/05/30 08:10:17;;;;;;;;;;;;;;;;;;5078680;28;19935;-59
2023/05/30 08:12:43;;;;;;;;;;;;;;;;;;5082653;28;19935;-58
2023/05/30 08:15:09;;;;;;;;;;;;;;;;;;5081451;28;20366;-59
2023/05/30 08:17:35;;;;;;;;;;;;;;;;;;5085061;28;20306;-60
2023/05/30 08:20:03;;;;;;;;;;;;;;;;;;5068293;28;19930;-61
2023/05/30 08:22:31;;;;;;;;;;;;;;;;;;5085870;28;19924;-61
2023/05/30 08:24:59;;;;;;;;;;;;;;;;;;5082023;28;19968;-58
2023/05/30 08:27:25;;;;;;;;;;;;;;;;;;5089366;28;20022;-59
2023/05/30 08:29:52;;;;;;;;;;;;;;;;;;5069083;28;20006;-61
2023/05/30 08:32:18;;;;;;;;;;;;;;;;;;5091772;28;19924;-61
2023/05/30 08:34:44;;;;;;;;;;;;;;;;;;5091039;28;20602;-61
2023/05/30 08:37:10;;;;;;;;;;;;;;;;;;5062633;28;20114;-60
2023/05/30 08:39:36;;;;;;;;;;;;;;;;;;5068109;28;19928;-60
2023/05/30 08:42:02;;;;;;;;;;;;;;;;;;5090092;28;19950;-60
2023/05/30 08:44:28;;;;;;;;;;;;;;;;;;5084982;28;19929;-59
2023/05/30 08:46:54;;;;;;;;;;;;;;;;;;5080885;28;19995;-58
2023/05/30 08:49:20;;;;;;;;;;;;;;;;;;5059698;28;20367;-59
2023/05/30 08:51:46;;;;;;;;;;;;;;;;;;5085519;28;19924;-60
2023/05/30 08:54:12;;;;;;;;;;;;;;;;;;5085352;28;20010;-59
2023/05/30 08:56:38;;;;;;;;;;;;;;;;;;5083123;28;20434;-56
2023/05/30 08:59:05;;;;;;;;;;;;;;;;;;5076136;28;20003;-57
2023/05/30 09:01:31;;;;;;;;;;;;;;;;;;5067961;28;19924;-59
2023/05/30 09:03:56;;;;;;;;;;;;;;;;;;5090531;28;19924;-59
2023/05/30 09:06:22;;;;;;;;;;;;;;;;;;5090865;28;19924;-61
2023/05/30 09:08:48;;;;;;;;;;;;;;;;;;5091716;28;19979;-57
2023/05/30 09:11:15;;;;;;;;;;;;;;;;;;5085198;28;19993;-61
2023/05/30 09:13:41;;;;;;;;;;;;;;;;;;5085150;28;20432;-59
2023/05/30 09:16:07;;;;;;;;;;;;;;;;;;5066660;28;19965;-59
2023/05/30 09:18:33;;;;;;;;;;;;;;;;;;5063423;28;19963;-60
2023/05/30 09:20:59;;;;;;;;;;;;;;;;;;5085781;28;19924;-59
2023/05/30 09:23:25;;;;;;;;;;;;;;;;;;5083513;28;20041;-60
2023/05/30 09:25:51;;;;;;;;;;;;;;;;;;5067972;28;19929;-60
2023/05/30 09:28:17;;;;;;;;;;;;;;;;;;5090658;28;19924;-58
2023/05/30 09:30:43;;;;;;;;;;;;;;;;;;5091387;28;19950;-58
2023/05/30 09:33:09;;;;;;;;;;;;;;;;;;5090599;28;19920;-58
2023/05/30 09:35:35;;;;;;;;;;;;;;;;;;5079503;28;19928;-60
2023/05/30 09:38:01;;;;;;;;;;;;;;;;;;5073169;28;20340;-60
2023/05/30 09:40:27;;;;;;;;;;;;;;;;;;5080120;28;19924;-60
2023/05/30 09:42:53;;;;;;;;;;;;;;;;;;5071953;28;19963;-60
2023/05/30 09:45:19;;;;;;;;;;;;;;;;;;5091507;28;19923;-60
2023/05/30 09:47:45;;;;;;;;;;;;;;;;;;5091241;28;19935;-58
2023/05/30 09:50:14;;;;;;;;;;;;;;;;;;5090497;28;19924;-60
2023/05/30 09:52:40;;;;;;;;;;;;;;;;;;5084700;28;19932;-59
2023/05/30 09:55:06;;;;;;;;;;;;;;;;;;5090629;28;19928;-59
2023/05/30 09:57:33;;;;;;;;;;;;;;;;;;5090545;28;19924;-61
2023/05/30 09:59:59;;;;;;;;;;;;;;;;;;5090605;28;19940;-57
2023/05/30 10:02:25;;;;;;;;;;;;;;;;;;5085834;28;19920;-59
2023/05/30 10:04:50;;;;;;;;;;;;;;;;;;5083589;28;19982;-58
2023/05/30 10:07:16;;;;;;;;;;;;;;;;;;5083550;28;19963;-60
2023/05/30 10:09:42;;;;;;;;;;;;;;;;;;5082576;28;20022;-59
2023/05/30 10:12:08;;;;;;;;;;;;;;;;;;5079613;28;19927;-61
2023/05/30 10:14:34;;;;;;;;;;;;;;;;;;5090038;28;19994;-60
2023/05/30 10:17:00;;;;;;;;;;;;;;;;;;5081417;28;19925;-59
2023/05/30 10:19:26;;;;;;;;;;;;;;;;;;5086402;28;20454;-58
2023/05/30 10:21:52;;;;;;;;;;;;;;;;;;5083446;28;20011;-60
2023/05/30 10:24:18;;;;;;;;;;;;;;;;;;5090390;28;19935;-60
2023/05/30 10:26:44;;;;;;;;;;;;;;;;;;5085932;28;19998;-60
2023/05/30 10:29:10;;;;;;;;;;;;;;;;;;5090034;28;19931;-60
2023/05/30 10:31:36;;;;;;;;;;;;;;;;;;5084400;28;19928;-59
2023/05/30 10:34:02;;;;;;;;;;;;;;;;;;5084248;28;19931;-61
2023/05/30 10:36:28;;;;;;;;;;;;;;;;;;5087606;28;20369;-60
2023/05/30 10:38:55;;;;;;;;;;;;;;;;;;5090408;28;20015;-60
2023/05/30 10:41:22;;;;;;;;;;;;;;;;;;5090332;28;19963;-60
2023/05/30 10:43:48;;;;;;;;;;;;;;;;;;5090195;28;20010;-60
2023/05/30 10:46:14;;;;;;;;;;;;;;;;;;5090914;28;20007;-60
2023/05/30 10:48:43;;;;;;;;;;;;;;;;;;5089752;28;19978;-60
2023/05/30 10:51:10;;;;;;;;;;;;;;;;;;5089352;28;19950;-60
2023/05/30 10:53:36;;;;;;;;;;;;;;;;;;5090425;28;20015;-61
2023/05/30 10:56:02;;;;;;;;;;;;;;;;;;5089841;28;20031;-60
2023/05/30 10:58:28;;;;;;;;;;;;;;;;;;5086272;28;20070;-61
2023/05/30 11:00:54;;;;;;;;;;;;;;;;;;5071807;28;19931;-61
2023/05/30 11:03:20;;;;;;;;;;;;;;;;;;5089880;28;19924;-60
2023/05/30 11:05:46;;;;;;;;;;;;;;;;;;5081757;28;20264;-59
2023/05/30 11:08:12;;;;;;;;;;;;;;;;;;5088356;28;19959;-60
2023/05/30 11:10:38;;;;;;;;;;;;;;;;;;5090383;28;19978;-61
2023/05/30 11:13:04;;;;;;;;;;;;;;;;;;5089587;28;19924;-60
2023/05/30 11:15:30;;;;;;;;;;;;;;;;;;5070635;28;19963;-60
2023/05/30 11:17:56;;;;;;;;;;;;;;;;;;5061783;28;19925;-57
2023/05/30 11:20:22;;;;;;;;;;;;;;;;;;5084718;28;19956;-56
2023/05/30 11:22:48;;;;;;;;;;;;;;;;;;5082554;28;20019;-57
2023/05/30 11:25:14;;;;;;;;;;;;;;;;;;5077797;28;19932;-58
2023/05/30 11:27:40;;;;;;;;;;;;;;;;;;5079058;28;19928;-59
2023/05/30 11:30:09;;;;;;;;;;;;;;;;;;5084748;28;21282;-61
2023/05/30 11:32:35;;;;;;;;;;;;;;;;;;5061065;28;20366;-62
2023/05/30 11:35:01;;;;;;;;;;;;;;;;;;5089621;28;20006;-63
2023/05/30 11:37:27;;;;;;;;;;;;;;;;;;5071242;28;19920;-63
2023/05/30 11:39:54;;;;;;;;;;;;;;;;;;5084075;28;19959;-64
2023/05/30 11:42:20;;;;;;;;;;;;;;;;;;5058321;28;20383;-62
2023/05/30 11:44:46;;;;;;;;;;;;;;;;;;5078983;28;19934;-61
2023/05/30 11:49:56;;;;;;;;;;;;;;;;;;5079679;28;20378;-60
2023/05/30 11:52:22;;;;;;;;;;;;;;;;;;5082887;28;20324;-61
2023/05/30 11:54:48;;;;;;;;;;;;;;;;;;5089023;28;19920;-61
2023/05/30 11:57:17;;;;;;;;;;;;;;;;;;5084673;28;20277;-61
2023/05/30 11:59:43;;;;;;;;;;;;;;;;;;5063866;28;19924;-62
2023/05/30 12:02:09;;;;;;;;;;;;;;;;;;5074532;28;19920;-61
2023/05/30 12:04:37;;;;;;;;;;;;;;;;;;5093521;28;19936;-61
2023/05/30 12:07:03;;;;;;;;;;;;;;;;;;5088508;28;19935;-61
2023/05/30 12:09:29;;;;;;;;;;;;;;;;;;5071887;28;20382;-61
2023/05/30 12:11:56;;;;;;;;;;;;;;;;;;5090895;28;19945;-61
2023/05/30 12:14:22;;;;;;;;;;;;;;;;;;5093065;28;20456;-61
2023/05/30 12:16:48;;;;;;;;;;;;;;;;;;5092994;28;19964;-61
2023/05/30 12:19:14;;;;;;;;;;;;;;;;;;5065027;28;20025;-61
2023/05/30 12:21:42;;;;;;;;;;;;;;;;;;5092535;28;19928;-61
2023/05/30 12:24:08;;;;;;;;;;;;;;;;;;5085280;28;19921;-61
2023/05/30 12:26:35;;;;;;;;;;;;;;;;;;5078840;28;19947;-64
2023/05/30 12:29:01;;;;;;;;;;;;;;;;;;5087688;28;19928;-61
2023/05/30 12:31:27;;;;;;;;;;;;;;;;;;5091210;28;19931;-62
2023/05/30 12:33:52;;;;;;;;;;;;;;;;;;5075597;28;19943;-62
2023/05/30 12:36:19;;;;;;;;;;;;;;;;;;5076046;28;19951;-61
2023/05/30 12:38:45;;;;;;;;;;;;;;;;;;5093749;28;19942;-61
2023/05/30 12:41:11;;;;;;;;;;;;;;;;;;5074788;28;20295;-61
2023/05/30 12:43:38;;;;;;;;;;;;;;;;;;5075581;28;19920;-62
2023/05/30 12:46:04;;;;;;;;;;;;;;;;;;5092826;28;19924;-62
2023/05/30 12:48:30;;;;;;;;;;;;;;;;;;5093730;28;20443;-62
2023/05/30 12:50:58;;;;;;;;;;;;;;;;;;5093339;28;20014;-62
2023/05/30 12:53:23;;;;;;;;;;;;;;;;;;5093009;28;19971;-61
2023/05/30 12:55:50;;;;;;;;;;;;;;;;;;5091714;28;19959;-61
2023/05/30 12:58:16;;;;;;;;;;;;;;;;;;5092824;28;20390;-61
2023/05/30 13:00:41;;;;;;;;;;;;;;;;;;5092953;28;20014;-61
2023/05/30 13:03:08;;;;;;;;;;;;;;;;;;5075024;28;19920;-60
2023/05/30 13:05:35;;;;;;;;;;;;;;;;;;5093387;28;19924;-60
2023/05/30 13:08:01;;;;;;;;;;;;;;;;;;5092895;28;19924;-60
2023/05/30 13:10:27;;;;;;;;;;;;;;;;;;5090415;28;19927;-60
2023/05/30 13:12:52;;;;;;;;;;;;;;;;;;5092352;28;19920;-62
2023/05/30 13:15:18;;;;;;;;;;;;;;;;;;5093277;28;19930;-62
2023/05/30 13:17:44;;;;;;;;;;;;;;;;;;5092779;28;19999;-62
2023/05/30 13:20:10;;;;;;;;;;;;;;;;;;5092540;28;19928;-61
2023/05/30 13:22:36;;;;;;;;;;;;;;;;;;5092800;28;19924;-62
2023/05/30 13:25:02;;;;;;;;;;;;;;;;;;5091904;28;20006;-62
2023/05/30 13:27:28;;;;;;;;;;;;;;;;;;5092574;28;20351;-61
2023/05/30 13:29:54;;;;;;;;;;;;;;;;;;5092340;28;19969;-62
2023/05/30 13:32:20;;;;;;;;;;;;;;;;;;5090942;28;19925;-62
2023/05/30 13:34:46;;;;;;;;;;;;;;;;;;5092443;28;19928;-60
2023/05/30 13:37:12;;;;;;;;;;;;;;;;;;5092369;28;19924;-60
2023/05/30 13:39:38;;;;;;;;;;;;;;;;;;5091602;28;20036;-60
2023/05/30 13:42:05;;;;;;;;;;;;;;;;;;5092141;28;20007;-60
2023/05/30 13:44:31;;;;;;;;;;;;;;;;;;5073797;28;19924;-60
2023/05/30 13:46:57;;;;;;;;;;;;;;;;;;5091709;28;19984;-62
2023/05/30 13:49:32;;;;;;;;;;;;;;;;;;5092042;28;19985;-62
2023/05/30 13:51:58;;;;;;;;;;;;;;;;;;5091666;28;20464;-63
2023/05/30 13:54:23;;;;;;;;;;;;;;;;;;5091427;28;19927;-61
2023/05/30 13:56:49;;;;;;;;;;;;;;;;;;5091913;28;20027;-61
2023/05/30 13:59:15;;;;;;;;;;;;;;;;;;5073703;28;19920;-61
2023/05/30 14:01:41;;;;;;;;;;;;;;;;;;5091248;28;19920;-61
2023/05/30 14:04:07;;;;;;;;;;;;;;;;;;5091862;28;20290;-62
2023/05/30 14:06:33;;;;;;;;;;;;;;;;;;5073594;28;20018;-62
2023/05/30 14:08:59;;;;;;;;;;;;;;;;;;5091041;28;19932;-62
2023/05/30 14:11:25;;;;;;;;;;;;;;;;;;5091771;28;19920;-62
2023/05/30 14:13:51;;;;;;;;;;;;;;;;;;5091748;28;19928;-62
2023/05/30 14:16:17;;;;;;;;;;;;;;;;;;5072712;28;19943;-62
2023/05/30 14:18:46;;;;;;;;;;;;;;;;;;5091505;28;19920;-62
2023/05/30 14:21:12;;;;;;;;;;;;;;;;;;5091507;28;20429;-61
2023/05/30 14:23:39;;;;;;;;;;;;;;;;;;5090915;28;19920;-62
2023/05/30 14:26:05;;;;;;;;;;;;;;;;;;5090816;28;19959;-61
2023/05/30 14:28:34;;;;;;;;;;;;;;;;;;5087204;28;19928;-64
2023/05/30 14:31:00;;;;;;;;;;;;;;;;;;5070700;28;19974;-65
2023/05/30 14:33:26;;;;;;;;;;;;;;;;;;5071397;28;19929;-64
2023/05/30 14:35:52;;;;;;;;;;;;;;;;;;5071458;28;19994;-64
2023/05/30 14:38:19;;;;;;;;;;;;;;;;;;5070731;28;19921;-62
2023/05/30 14:40:45;;;;;;;;;;;;;;;;;;5052976;28;20231;-62
2023/05/30 14:43:11;;;;;;;;;;;;;;;;;;5036124;28;19931;-62
2023/05/30 14:45:37;;;;;;;;;;;;;;;;;;5070594;28;20019;-62
2023/05/30 14:48:03;;;;;;;;;;;;;;;;;;5069818;28;19935;-62
2023/05/30 14:50:31;;;;;;;;;;;;;;;;;;5058041;28;19928;-62
2023/05/30 14:52:57;;;;;;;;;;;;;;;;;;5071215;28;19920;-62
2023/05/30 14:55:23;;;;;;;;;;;;;;;;;;5072057;28;19997;-62
2023/05/30 14:57:49;;;;;;;;;;;;;;;;;;5073213;28;19994;-62
2023/05/30 15:00:17;;;;;;;;;;;;;;;;;;5082231;28;20045;-62
2023/05/30 15:02:43;;;;;;;;;;;;;;;;;;5083488;28;19920;-62
2023/05/30 15:05:09;;;;;;;;;;;;;;;;;;5073014;28;19928;-62
2023/05/30 15:07:35;;;;;;;;;;;;;;;;;;5084161;28;20404;-62
2023/05/30 15:10:02;;;;;;;;;;;;;;;;;;5085808;28;19924;-62
2023/05/30 15:12:28;;;;;;;;;;;;;;;;;;5091034;28;20319;-62
2023/05/30 15:14:54;;;;;;;;;;;;;;;;;;5080309;28;19920;-62
2023/05/30 15:17:20;;;;;;;;;;;;;;;;;;5079143;28;19924;-62
2023/05/30 15:19:47;;;;;;;;;;;;;;;;;;5081360;28;19932;-62
2023/05/30 15:22:13;;;;;;;;;;;;;;;;;;5069424;28;19920;-62
2023/05/30 15:24:39;;;;;;;;;;;;;;;;;;5089029;28;20498;-62
2023/05/30 15:27:05;;;;;;;;;;;;;;;;;;5071696;28;19974;-62
2023/05/30 15:29:32;;;;;;;;;;;;;;;;;;5068508;28;19969;-62
2023/05/30 15:31:58;;;;;;;;;;;;;;;;;;5050936;28;20003;-62
2023/05/30 15:34:24;;;;;;;;;;;;;;;;;;5068045;28;20062;-62
2023/05/30 15:36:50;;;;;;;;;;;;;;;;;;5068557;28;19940;-62
2023/05/30 15:39:16;;;;;;;;;;;;;;;;;;5068853;28;19946;-62
2023/05/30 15:41:42;;;;;;;;;;;;;;;;;;5068750;28;19934;-62
2023/05/30 15:44:08;;;;;;;;;;;;;;;;;;5068424;28;19924;-62
2023/05/30 15:46:34;;;;;;;;;;;;;;;;;;5068960;28;19928;-62
2023/05/30 15:49:00;;;;;;;;;;;;;;;;;;5070684;28;20319;-62
2023/05/30 15:51:26;;;;;;;;;;;;;;;;;;5088806;28;19931;-62
2023/05/30 15:53:52;;;;;;;;;;;;;;;;;;5088861;28;19969;-62
2023/05/30 15:56:18;;;;;;;;;;;;;;;;;;5088611;28;20342;-62
2023/05/30 15:58:45;;;;;;;;;;;;;;;;;;5088254;28;19924;-62
2023/05/30 16:01:10;;;;;;;;;;;;;;;;;;5088917;28;19931;-62
2023/05/30 16:03:37;;;;;;;;;;;;;;;;;;5088983;28;20340;-62
2023/05/30 16:06:03;;;;;;;;;;;;;;;;;;5088818;28;19920;-62
2023/05/30 16:08:29;;;;;;;;;;;;;;;;;;5088660;28;20415;-62
2023/05/30 16:10:55;;;;;;;;;;;;;;;;;;5088782;28;19971;-62
2023/05/30 16:13:21;;;;;;;;;;;;;;;;;;5070087;28;19969;-62
2023/05/30 16:15:47;;;;;;;;;;;;;;;;;;5088889;28;19920;-62
2023/05/30 16:18:13;;;;;;;;;;;;;;;;;;5088731;28;19963;-62
2023/05/30 16:20:42;;;;;;;;;;;;;;;;;;5088307;28;19920;-62
2023/05/30 16:23:08;;;;;;;;;;;;;;;;;;5088833;28;19920;-62
2023/05/30 16:25:34;;;;;;;;;;;;;;;;;;5083881;28;19935;-62
2023/05/30 16:28:00;;;;;;;;;;;;;;;;;;5067986;28;19928;-62
2023/05/30 16:30:26;;;;;;;;;;;;;;;;;;5088608;28;20109;-62
2023/05/30 16:32:52;;;;;;;;;;;;;;;;;;5088392;28;19920;-62
2023/05/30 16:35:18;;;;;;;;;;;;;;;;;;5088181;28;20374;-62
2023/05/30 16:37:44;;;;;;;;;;;;;;;;;;5088587;28;19920;-62
2023/05/30 16:40:10;;;;;;;;;;;;;;;;;;5088743;28;20426;-62